Time;durP1;ratioP1;P1;durP2;ratioP2;P2;SDS_P1;SDS_P2;PMS_P1;PMS_P2;Temp;Humidity;BMP_temperature;BMP_pressure;BME280_temperature;BME280_humidity;BME280_pressure;Samples;Min_cycle;Max_cycle;Signal;HPM_P1;HPM_P2
2024/04/09 00:02:18;;;;;;;;;;;;;;;;;;5447884;26;19935;-71
2024/04/09 00:04:47;;;;;;;;;;;;;;;;;;5447138;26;19936;-71
2024/04/09 00:07:13;;;;;;;;;;;;;;;;;;5446673;26;20362;-71
2024/04/09 00:09:45;;;;;;;;;;;;;;;;;;5446820;26;19935;-72
2024/04/09 00:12:11;;;;;;;;;;;;;;;;;;5446813;26;19928;-73
2024/04/09 00:14:47;;;;;;;;;;;;;;;;;;5446797;26;20170;-72
2024/04/09 00:17:13;;;;;;;;;;;;;;;;;;5449432;26;20019;-72
2024/04/09 00:19:43;;;;;;;;;;;;;;;;;;5482894;26;20447;-72
2024/04/09 00:22:09;;;;;;;;;;;;;;;;;;5482339;26;19932;-72
2024/04/09 00:24:38;;;;;;;;;;;;;;;;;;5482456;26;19968;-72
2024/04/09 00:27:06;;;;;;;;;;;;;;;;;;5481211;26;19928;-72
2024/04/09 00:29:35;;;;;;;;;;;;;;;;;;5481945;26;19928;-72
2024/04/09 00:32:01;;;;;;;;;;;;;;;;;;5464210;26;20266;-72
2024/04/09 00:34:31;;;;;;;;;;;;;;;;;;5447641;26;19932;-72
2024/04/09 00:36:57;;;;;;;;;;;;;;;;;;5467268;26;20371;-72
2024/04/09 00:39:27;;;;;;;;;;;;;;;;;;5486496;26;19997;-72
2024/04/09 00:41:54;;;;;;;;;;;;;;;;;;5485969;26;19935;-72
2024/04/09 00:44:23;;;;;;;;;;;;;;;;;;5485897;26;19936;-72
2024/04/09 00:46:49;;;;;;;;;;;;;;;;;;5485597;26;20270;-72
2024/04/09 00:49:19;;;;;;;;;;;;;;;;;;5485890;26;19928;-72
2024/04/09 00:51:45;;;;;;;;;;;;;;;;;;5476573;26;19936;-72
2024/04/09 00:54:13;;;;;;;;;;;;;;;;;;5470837;26;20290;-72
2024/04/09 00:56:39;;;;;;;;;;;;;;;;;;5485225;26;20290;-72
2024/04/09 00:59:12;;;;;;;;;;;;;;;;;;5485720;26;19928;-72
2024/04/09 01:01:40;;;;;;;;;;;;;;;;;;5485906;26;19940;-72
2024/04/09 01:04:08;;;;;;;;;;;;;;;;;;5485735;26;19928;-72
2024/04/09 01:06:35;;;;;;;;;;;;;;;;;;5486212;26;19948;-73
2024/04/09 01:09:03;;;;;;;;;;;;;;;;;;5472198;26;19932;-73
2024/04/09 01:11:30;;;;;;;;;;;;;;;;;;5449199;26;20003;-73
2024/04/09 01:13:58;;;;;;;;;;;;;;;;;;5448866;26;19928;-72
2024/04/09 01:16:25;;;;;;;;;;;;;;;;;;5463401;26;19932;-72
2024/04/09 01:18:54;;;;;;;;;;;;;;;;;;5485354;26;19928;-72
2024/04/09 01:21:20;;;;;;;;;;;;;;;;;;5485589;26;19928;-72
2024/04/09 01:23:49;;;;;;;;;;;;;;;;;;5485442;26;20260;-72
2024/04/09 01:26:15;;;;;;;;;;;;;;;;;;5468829;26;20386;-72
2024/04/09 01:28:46;;;;;;;;;;;;;;;;;;5448476;26;19973;-73
2024/04/09 01:31:15;;;;;;;;;;;;;;;;;;5484759;26;19927;-71
2024/04/09 01:33:45;;;;;;;;;;;;;;;;;;5485168;26;19936;-71
2024/04/09 01:36:11;;;;;;;;;;;;;;;;;;5485196;26;19977;-71
2024/04/09 01:38:40;;;;;;;;;;;;;;;;;;5484897;26;20343;-71
2024/04/09 01:41:06;;;;;;;;;;;;;;;;;;5484873;26;19928;-71
2024/04/09 01:43:35;;;;;;;;;;;;;;;;;;5462967;26;19940;-71
2024/04/09 01:46:01;;;;;;;;;;;;;;;;;;5448857;26;19928;-71
2024/04/09 01:48:30;;;;;;;;;;;;;;;;;;5449910;26;19929;-71
2024/04/09 01:50:57;;;;;;;;;;;;;;;;;;5449281;26;19928;-71
2024/04/09 01:53:25;;;;;;;;;;;;;;;;;;5457646;26;19935;-72
2024/04/09 01:55:52;;;;;;;;;;;;;;;;;;5485060;26;20252;-71
2024/04/09 01:58:20;;;;;;;;;;;;;;;;;;5484708;26;19930;-72
2024/04/09 02:00:46;;;;;;;;;;;;;;;;;;5459258;26;19940;-72
2024/04/09 02:03:16;;;;;;;;;;;;;;;;;;5448557;26;19940;-72
2024/04/09 02:05:42;;;;;;;;;;;;;;;;;;5448569;26;19928;-71
2024/04/09 02:08:10;;;;;;;;;;;;;;;;;;5448380;26;19933;-72
2024/04/09 02:10:37;;;;;;;;;;;;;;;;;;5448394;26;19928;-72
2024/04/09 02:13:05;;;;;;;;;;;;;;;;;;5448671;26;20278;-72
2024/04/09 02:15:32;;;;;;;;;;;;;;;;;;5480945;26;19927;-72
2024/04/09 02:18:01;;;;;;;;;;;;;;;;;;5483190;26;20460;-71
2024/04/09 02:20:29;;;;;;;;;;;;;;;;;;5484357;26;19968;-71
2024/04/09 02:22:57;;;;;;;;;;;;;;;;;;5484628;26;19939;-72
2024/04/09 02:25:23;;;;;;;;;;;;;;;;;;5485263;26;19953;-71
2024/04/09 02:27:52;;;;;;;;;;;;;;;;;;5475969;26;19929;-71
2024/04/09 02:30:19;;;;;;;;;;;;;;;;;;5448205;26;19935;-71
2024/04/09 02:32:48;;;;;;;;;;;;;;;;;;5447870;26;20273;-71
2024/04/09 02:35:14;;;;;;;;;;;;;;;;;;5480745;26;20370;-71
2024/04/09 02:37:42;;;;;;;;;;;;;;;;;;5484680;26;19928;-72
2024/04/09 02:40:15;;;;;;;;;;;;;;;;;;5483981;26;19928;-72
2024/04/09 02:42:43;;;;;;;;;;;;;;;;;;5462232;26;19960;-72
2024/04/09 02:45:09;;;;;;;;;;;;;;;;;;5447018;26;19929;-72
2024/04/09 02:47:39;;;;;;;;;;;;;;;;;;5447460;26;20005;-72
2024/04/09 02:50:05;;;;;;;;;;;;;;;;;;5447594;26;20252;-72
2024/04/09 02:52:34;;;;;;;;;;;;;;;;;;5446429;26;20400;-72
2024/04/09 02:55:00;;;;;;;;;;;;;;;;;;5458722;26;19928;-72
2024/04/09 02:57:30;;;;;;;;;;;;;;;;;;5480898;26;19987;-72
2024/04/09 02:59:56;;;;;;;;;;;;;;;;;;5482179;26;19954;-72
2024/04/09 03:02:25;;;;;;;;;;;;;;;;;;5482217;26;20352;-72
2024/04/09 03:04:51;;;;;;;;;;;;;;;;;;5481743;26;20383;-72
2024/04/09 03:07:20;;;;;;;;;;;;;;;;;;5480498;26;19928;-72
2024/04/09 03:09:46;;;;;;;;;;;;;;;;;;5481578;26;19935;-71
2024/04/09 03:12:15;;;;;;;;;;;;;;;;;;5481356;26;19932;-72
2024/04/09 03:14:41;;;;;;;;;;;;;;;;;;5481265;26;19935;-72
2024/04/09 03:17:09;;;;;;;;;;;;;;;;;;5481514;26;20347;-71
2024/04/09 03:19:36;;;;;;;;;;;;;;;;;;5481289;26;19927;-71
2024/04/09 03:22:04;;;;;;;;;;;;;;;;;;5481707;26;19982;-72
2024/04/09 03:24:31;;;;;;;;;;;;;;;;;;5475092;26;20240;-72
2024/04/09 03:26:59;;;;;;;;;;;;;;;;;;5444527;26;19976;-72
2024/04/09 03:29:25;;;;;;;;;;;;;;;;;;5444721;26;19928;-72
2024/04/09 03:31:54;;;;;;;;;;;;;;;;;;5450238;26;19935;-72
2024/04/09 03:34:23;;;;;;;;;;;;;;;;;;5481587;26;19928;-72
2024/04/09 03:36:49;;;;;;;;;;;;;;;;;;5481419;26;19928;-72
2024/04/09 03:39:19;;;;;;;;;;;;;;;;;;5481138;26;19962;-71
2024/04/09 03:41:47;;;;;;;;;;;;;;;;;;5479854;26;19935;-71
2024/04/09 03:44:14;;;;;;;;;;;;;;;;;;5481278;26;19928;-72
2024/04/09 03:46:42;;;;;;;;;;;;;;;;;;5480988;26;20385;-71
2024/04/09 03:49:09;;;;;;;;;;;;;;;;;;5481195;26;19928;-72
2024/04/09 03:51:38;;;;;;;;;;;;;;;;;;5481680;26;19935;-72
2024/04/09 03:54:04;;;;;;;;;;;;;;;;;;5462924;26;19928;-71
2024/04/09 03:56:33;;;;;;;;;;;;;;;;;;5446280;26;19936;-71
2024/04/09 03:58:59;;;;;;;;;;;;;;;;;;5447903;26;19929;-72
2024/04/09 04:01:27;;;;;;;;;;;;;;;;;;5446508;26;20384;-72
2024/04/09 04:03:54;;;;;;;;;;;;;;;;;;5446855;26;19928;-72
2024/04/09 04:06:22;;;;;;;;;;;;;;;;;;5446590;26;20784;-72
2024/04/09 04:08:48;;;;;;;;;;;;;;;;;;5445802;26;19939;-70
2024/04/09 04:11:17;;;;;;;;;;;;;;;;;;5446198;26;20025;-72
2024/04/09 04:13:43;;;;;;;;;;;;;;;;;;5446429;26;19940;-71
2024/04/09 04:16:12;;;;;;;;;;;;;;;;;;5447402;26;19976;-71
2024/04/09 04:18:39;;;;;;;;;;;;;;;;;;5445628;26;20259;-71
2024/04/09 04:21:09;;;;;;;;;;;;;;;;;;5444742;26;20453;-72
2024/04/09 04:23:35;;;;;;;;;;;;;;;;;;5460716;26;20416;-72
2024/04/09 04:26:04;;;;;;;;;;;;;;;;;;5480693;26;19940;-71
2024/04/09 04:28:30;;;;;;;;;;;;;;;;;;5480106;26;20264;-72
2024/04/09 04:30:59;;;;;;;;;;;;;;;;;;5480535;26;19996;-72
2024/04/09 04:33:25;;;;;;;;;;;;;;;;;;5460060;26;19928;-72
2024/04/09 04:35:54;;;;;;;;;;;;;;;;;;5443974;26;19935;-72
2024/04/09 04:38:20;;;;;;;;;;;;;;;;;;5444677;26;19936;-72
2024/04/09 04:40:49;;;;;;;;;;;;;;;;;;5475713;26;19952;-72
2024/04/09 04:43:16;;;;;;;;;;;;;;;;;;5480160;26;19928;-71
2024/04/09 04:45:44;;;;;;;;;;;;;;;;;;5480396;26;19928;-72
2024/04/09 04:48:10;;;;;;;;;;;;;;;;;;5480228;26;20372;-72
2024/04/09 04:50:39;;;;;;;;;;;;;;;;;;5479169;26;19981;-71
2024/04/09 04:53:05;;;;;;;;;;;;;;;;;;5479913;26;19928;-71
2024/04/09 04:55:34;;;;;;;;;;;;;;;;;;5480303;26;20378;-71
2024/04/09 04:58:00;;;;;;;;;;;;;;;;;;5479653;26;19943;-71
2024/04/09 05:00:29;;;;;;;;;;;;;;;;;;5479472;26;19935;-70
2024/04/09 05:02:55;;;;;;;;;;;;;;;;;;5480048;26;19964;-71
2024/04/09 05:05:24;;;;;;;;;;;;;;;;;;5478615;26;20429;-71
2024/04/09 05:07:50;;;;;;;;;;;;;;;;;;5460573;26;20043;-68
2024/04/09 05:10:19;;;;;;;;;;;;;;;;;;5479449;26;19928;-67
2024/04/09 05:12:45;;;;;;;;;;;;;;;;;;5479683;26;19950;-69
2024/04/09 05:15:14;;;;;;;;;;;;;;;;;;5479594;26;19976;-69
2024/04/09 05:17:40;;;;;;;;;;;;;;;;;;5479267;26;19935;-70
2024/04/09 05:20:09;;;;;;;;;;;;;;;;;;5481208;26;19952;-70
2024/04/09 05:22:35;;;;;;;;;;;;;;;;;;5484289;26;19928;-70
2024/04/09 05:25:05;;;;;;;;;;;;;;;;;;5468129;26;20268;-71
2024/04/09 05:27:31;;;;;;;;;;;;;;;;;;5448208;26;19929;-71
2024/04/09 05:30:00;;;;;;;;;;;;;;;;;;5461701;26;20388;-71
2024/04/09 05:32:26;;;;;;;;;;;;;;;;;;5484896;26;19928;-71
2024/04/09 05:34:55;;;;;;;;;;;;;;;;;;5485233;26;19928;-71
2024/04/09 05:37:22;;;;;;;;;;;;;;;;;;5485195;26;19956;-71
2024/04/09 05:39:51;;;;;;;;;;;;;;;;;;5484682;26;20005;-71
2024/04/09 05:42:17;;;;;;;;;;;;;;;;;;5483765;26;19928;-71
2024/04/09 05:44:45;;;;;;;;;;;;;;;;;;5484853;26;19928;-71
2024/04/09 05:47:12;;;;;;;;;;;;;;;;;;5485136;26;19977;-71
2024/04/09 05:49:40;;;;;;;;;;;;;;;;;;5484901;26;19968;-71
2024/04/09 05:52:06;;;;;;;;;;;;;;;;;;5484601;26;19952;-71
2024/04/09 05:54:35;;;;;;;;;;;;;;;;;;5484946;26;19934;-71
2024/04/09 05:57:01;;;;;;;;;;;;;;;;;;5484327;26;19932;-71
2024/04/09 05:59:30;;;;;;;;;;;;;;;;;;5483310;26;20013;-71
2024/04/09 06:01:57;;;;;;;;;;;;;;;;;;5485809;26;19928;-71
2024/04/09 06:04:26;;;;;;;;;;;;;;;;;;5484692;26;19928;-71
2024/04/09 06:06:52;;;;;;;;;;;;;;;;;;5484836;26;19981;-71
2024/04/09 06:09:21;;;;;;;;;;;;;;;;;;5484453;26;19935;-72
2024/04/09 06:11:47;;;;;;;;;;;;;;;;;;5484557;26;19928;-71
2024/04/09 06:14:16;;;;;;;;;;;;;;;;;;5483159;26;19959;-70
2024/04/09 06:16:42;;;;;;;;;;;;;;;;;;5484022;26;19928;-71
2024/04/09 06:19:10;;;;;;;;;;;;;;;;;;5479316;26;19935;-71
2024/04/09 06:21:36;;;;;;;;;;;;;;;;;;5447943;26;19928;-71
2024/04/09 06:24:07;;;;;;;;;;;;;;;;;;5447576;26;19932;-71
2024/04/09 06:26:33;;;;;;;;;;;;;;;;;;5448076;26;19929;-71
2024/04/09 06:29:01;;;;;;;;;;;;;;;;;;5465965;26;19928;-71
2024/04/09 06:31:27;;;;;;;;;;;;;;;;;;5479642;26;19935;-70
2024/04/09 06:33:56;;;;;;;;;;;;;;;;;;5483424;26;20263;-71
2024/04/09 06:36:22;;;;;;;;;;;;;;;;;;5473827;26;19928;-71
2024/04/09 06:38:51;;;;;;;;;;;;;;;;;;5447972;26;20270;-71
2024/04/09 06:41:17;;;;;;;;;;;;;;;;;;5447986;26;20259;-71
2024/04/09 06:43:46;;;;;;;;;;;;;;;;;;5447872;26;19929;-71
2024/04/09 06:46:12;;;;;;;;;;;;;;;;;;5447641;26;20605;-71
2024/04/09 06:48:40;;;;;;;;;;;;;;;;;;5448670;26;20001;-71
2024/04/09 06:51:06;;;;;;;;;;;;;;;;;;5447440;26;19939;-72
2024/04/09 06:53:35;;;;;;;;;;;;;;;;;;5448120;26;19929;-71
2024/04/09 06:56:01;;;;;;;;;;;;;;;;;;5447190;26;20371;-70
2024/04/09 06:58:31;;;;;;;;;;;;;;;;;;5447159;26;19928;-70
2024/04/09 07:00:57;;;;;;;;;;;;;;;;;;5447266;26;19929;-69
2024/04/09 07:03:26;;;;;;;;;;;;;;;;;;5447295;26;19960;-70
2024/04/09 07:05:52;;;;;;;;;;;;;;;;;;5448038;26;19928;-69
2024/04/09 07:08:21;;;;;;;;;;;;;;;;;;5446064;26;19944;-70
2024/04/09 07:10:48;;;;;;;;;;;;;;;;;;5447087;26;20380;-70
2024/04/09 07:13:16;;;;;;;;;;;;;;;;;;5447291;26;19959;-70
2024/04/09 07:15:43;;;;;;;;;;;;;;;;;;5447139;26;19935;-70
2024/04/09 07:18:12;;;;;;;;;;;;;;;;;;5470629;26;19939;-70
2024/04/09 07:20:38;;;;;;;;;;;;;;;;;;5483302;26;19928;-71
2024/04/09 07:23:06;;;;;;;;;;;;;;;;;;5482227;26;19956;-71
2024/04/09 07:25:33;;;;;;;;;;;;;;;;;;5460294;26;19935;-70
2024/04/09 07:28:01;;;;;;;;;;;;;;;;;;5470102;26;19935;-70
2024/04/09 07:30:27;;;;;;;;;;;;;;;;;;5483508;26;19927;-71
2024/04/09 07:32:57;;;;;;;;;;;;;;;;;;5483479;26;20022;-71
2024/04/09 07:35:23;;;;;;;;;;;;;;;;;;5483152;26;19940;-71
2024/04/09 07:37:52;;;;;;;;;;;;;;;;;;5483358;26;19932;-71
2024/04/09 07:40:19;;;;;;;;;;;;;;;;;;5481646;26;20004;-71
2024/04/09 07:42:47;;;;;;;;;;;;;;;;;;5482994;26;19934;-70
2024/04/09 07:45:14;;;;;;;;;;;;;;;;;;5480820;26;20365;-70
2024/04/09 07:47:42;;;;;;;;;;;;;;;;;;5482539;26;19996;-71
2024/04/09 07:50:09;;;;;;;;;;;;;;;;;;5483397;26;19935;-70
2024/04/09 07:52:38;;;;;;;;;;;;;;;;;;5482742;26;19935;-72
2024/04/09 07:55:05;;;;;;;;;;;;;;;;;;5482761;26;19928;-70
2024/04/09 07:57:34;;;;;;;;;;;;;;;;;;5481351;26;19935;-70
2024/04/09 08:00:00;;;;;;;;;;;;;;;;;;5482045;26;19935;-70
2024/04/09 08:02:29;;;;;;;;;;;;;;;;;;5481997;26;19935;-71
2024/04/09 08:04:55;;;;;;;;;;;;;;;;;;5482625;26;19928;-71
2024/04/09 08:07:23;;;;;;;;;;;;;;;;;;5482718;26;19927;-70
2024/04/09 08:09:50;;;;;;;;;;;;;;;;;;5482370;26;19934;-70
2024/04/09 08:12:19;;;;;;;;;;;;;;;;;;5484549;26;19942;-71
2024/04/09 08:14:45;;;;;;;;;;;;;;;;;;5456927;26;19928;-75
2024/04/09 08:17:14;;;;;;;;;;;;;;;;;;5445886;26;19928;-74
2024/04/09 08:19:40;;;;;;;;;;;;;;;;;;5446491;26;19936;-74
2024/04/09 08:22:09;;;;;;;;;;;;;;;;;;5446487;26;19935;-71
2024/04/09 08:24:35;;;;;;;;;;;;;;;;;;5454552;26;19977;-70
2024/04/09 08:27:04;;;;;;;;;;;;;;;;;;5481186;26;19934;-71
2024/04/09 08:29:31;;;;;;;;;;;;;;;;;;5481826;26;19935;-70
2024/04/09 08:32:00;;;;;;;;;;;;;;;;;;5481038;26;20362;-71
2024/04/09 08:34:26;;;;;;;;;;;;;;;;;;5467715;26;19936;-70
2024/04/09 08:36:55;;;;;;;;;;;;;;;;;;5445960;26;19936;-70
2024/04/09 08:39:22;;;;;;;;;;;;;;;;;;5445647;26;19937;-69
2024/04/09 08:41:51;;;;;;;;;;;;;;;;;;5445201;26;19928;-70
2024/04/09 08:44:17;;;;;;;;;;;;;;;;;;5445376;26;20387;-70
2024/04/09 08:46:46;;;;;;;;;;;;;;;;;;5445731;26;20019;-71
2024/04/09 08:49:14;;;;;;;;;;;;;;;;;;5446534;26;19928;-71
2024/04/09 08:51:43;;;;;;;;;;;;;;;;;;5446011;26;19936;-70
2024/04/09 08:54:09;;;;;;;;;;;;;;;;;;5445546;26;19928;-70
2024/04/09 08:56:37;;;;;;;;;;;;;;;;;;5447894;26;20008;-71
2024/04/09 08:59:04;;;;;;;;;;;;;;;;;;5449411;26;19929;-70
2024/04/09 09:01:33;;;;;;;;;;;;;;;;;;5449080;26;19939;-71
2024/04/09 09:03:59;;;;;;;;;;;;;;;;;;5448801;26;20330;-70
2024/04/09 09:06:29;;;;;;;;;;;;;;;;;;5449677;26;20027;-73
2024/04/09 09:08:57;;;;;;;;;;;;;;;;;;5448356;26;19932;-73
2024/04/09 09:11:26;;;;;;;;;;;;;;;;;;5449380;26;19936;-73
2024/04/09 09:13:52;;;;;;;;;;;;;;;;;;5485492;26;19935;-73
2024/04/09 09:16:20;;;;;;;;;;;;;;;;;;5485355;26;19939;-73
2024/04/09 09:18:46;;;;;;;;;;;;;;;;;;5485103;26;19935;-73
2024/04/09 09:21:16;;;;;;;;;;;;;;;;;;5483879;26;20374;-73
2024/04/09 09:23:42;;;;;;;;;;;;;;;;;;5484539;26;19954;-72
2024/04/09 09:26:10;;;;;;;;;;;;;;;;;;5485622;26;19969;-74
2024/04/09 09:28:37;;;;;;;;;;;;;;;;;;5485052;26;19935;-73
2024/04/09 09:31:06;;;;;;;;;;;;;;;;;;5485419;26;19932;-73
2024/04/09 09:33:32;;;;;;;;;;;;;;;;;;5482115;26;19927;-72
2024/04/09 09:36:00;;;;;;;;;;;;;;;;;;5484599;26;19935;-72
2024/04/09 09:38:26;;;;;;;;;;;;;;;;;;5479631;26;19935;-71
2024/04/09 09:40:57;;;;;;;;;;;;;;;;;;5448699;26;19996;-71
2024/04/09 09:43:23;;;;;;;;;;;;;;;;;;5448578;26;20444;-71
2024/04/09 09:45:51;;;;;;;;;;;;;;;;;;5448180;26;19928;-70
2024/04/09 09:48:18;;;;;;;;;;;;;;;;;;5448246;26;19935;-71
2024/04/09 09:50:46;;;;;;;;;;;;;;;;;;5449101;26;19939;-70
2024/04/09 09:53:12;;;;;;;;;;;;;;;;;;5448759;26;19929;-71
2024/04/09 09:55:41;;;;;;;;;;;;;;;;;;5449342;26;20466;-70
2024/04/09 09:58:07;;;;;;;;;;;;;;;;;;5447940;26;19936;-71
2024/04/09 10:00:36;;;;;;;;;;;;;;;;;;5448348;26;20348;-72
2024/04/09 10:03:02;;;;;;;;;;;;;;;;;;5447921;26;20009;-70
2024/04/09 10:05:31;;;;;;;;;;;;;;;;;;5448064;26;19958;-71
2024/04/09 10:07:58;;;;;;;;;;;;;;;;;;5446511;26;19977;-66
2024/04/09 10:10:45;;;;;;;;;;;;;;;;;;5464977;26;19996;-71
2024/04/09 10:13:11;;;;;;;;;;;;;;;;;;5482573;26;20244;-70
2024/04/09 10:15:40;;;;;;;;;;;;;;;;;;5483998;26;19928;-70
2024/04/09 10:18:06;;;;;;;;;;;;;;;;;;5483977;26;20391;-70
2024/04/09 10:20:35;;;;;;;;;;;;;;;;;;5485001;26;19940;-71
2024/04/09 10:23:02;;;;;;;;;;;;;;;;;;5485358;26;20357;-71
2024/04/09 10:25:30;;;;;;;;;;;;;;;;;;5484499;26;19936;-71
2024/04/09 10:27:56;;;;;;;;;;;;;;;;;;5483681;26;19938;-71
2024/04/09 10:30:25;;;;;;;;;;;;;;;;;;5483031;26;20274;-70
2024/04/09 10:32:51;;;;;;;;;;;;;;;;;;5484356;26;19935;-71
2024/04/09 10:35:22;;;;;;;;;;;;;;;;;;5483626;26;19987;-70
2024/04/09 10:37:48;;;;;;;;;;;;;;;;;;5483247;26;20302;-71
2024/04/09 10:40:17;;;;;;;;;;;;;;;;;;5483873;26;20003;-71
2024/04/09 10:42:43;;;;;;;;;;;;;;;;;;5483820;26;19932;-71
2024/04/09 10:45:12;;;;;;;;;;;;;;;;;;5483703;26;20246;-71
2024/04/09 10:47:38;;;;;;;;;;;;;;;;;;5482339;26;19964;-71
2024/04/09 10:50:07;;;;;;;;;;;;;;;;;;5483645;26;19927;-71
2024/04/09 10:52:33;;;;;;;;;;;;;;;;;;5484134;26;20604;-70
2024/04/09 10:55:02;;;;;;;;;;;;;;;;;;5483854;26;19959;-70
2024/04/09 10:57:28;;;;;;;;;;;;;;;;;;5483578;26;20387;-70
2024/04/09 10:59:56;;;;;;;;;;;;;;;;;;5484226;26;19934;-70
2024/04/09 11:02:22;;;;;;;;;;;;;;;;;;5483952;26;20267;-70
2024/04/09 11:04:51;;;;;;;;;;;;;;;;;;5482432;26;19934;-71
2024/04/09 11:07:17;;;;;;;;;;;;;;;;;;5484224;26;19928;-71
2024/04/09 11:09:46;;;;;;;;;;;;;;;;;;5454398;26;19997;-71
2024/04/09 11:12:12;;;;;;;;;;;;;;;;;;5447171;26;20535;-71
2024/04/09 11:14:41;;;;;;;;;;;;;;;;;;5447399;26;19935;-71
2024/04/09 11:17:07;;;;;;;;;;;;;;;;;;5447446;26;20943;-71
2024/04/09 11:19:35;;;;;;;;;;;;;;;;;;5446943;26;20023;-71
2024/04/09 11:22:04;;;;;;;;;;;;;;;;;;5463195;26;19928;-72
2024/04/09 11:24:30;;;;;;;;;;;;;;;;;;5483208;26;19927;-71
2024/04/09 11:26:59;;;;;;;;;;;;;;;;;;5482995;26;19953;-71
2024/04/09 11:29:25;;;;;;;;;;;;;;;;;;5483333;26;19934;-71
2024/04/09 11:31:54;;;;;;;;;;;;;;;;;;5482597;26;19936;-71
2024/04/09 11:34:20;;;;;;;;;;;;;;;;;;5483485;26;20262;-72
2024/04/09 11:36:49;;;;;;;;;;;;;;;;;;5483559;26;19927;-72
2024/04/09 11:39:16;;;;;;;;;;;;;;;;;;5481379;26;19931;-71
2024/04/09 11:41:45;;;;;;;;;;;;;;;;;;5483302;26;19951;-72
2024/04/09 11:44:11;;;;;;;;;;;;;;;;;;5482891;26;20375;-72
2024/04/09 11:46:39;;;;;;;;;;;;;;;;;;5483348;26;19936;-71
2024/04/09 11:49:05;;;;;;;;;;;;;;;;;;5483430;26;19935;-71
2024/04/09 11:51:34;;;;;;;;;;;;;;;;;;5483189;26;19943;-70
2024/04/09 11:54:00;;;;;;;;;;;;;;;;;;5482365;26;19935;-70
2024/04/09 11:56:29;;;;;;;;;;;;;;;;;;5481274;26;20340;-70
2024/04/09 11:58:55;;;;;;;;;;;;;;;;;;5482164;26;19928;-69
2024/04/09 12:01:24;;;;;;;;;;;;;;;;;;5482709;26;19928;-71
2024/04/09 12:03:50;;;;;;;;;;;;;;;;;;5482998;26;19927;-71
2024/04/09 12:06:19;;;;;;;;;;;;;;;;;;5475699;26;19929;-71
2024/04/09 12:08:46;;;;;;;;;;;;;;;;;;5446435;26;19935;-72
2024/04/09 12:11:14;;;;;;;;;;;;;;;;;;5448252;26;19993;-71
2024/04/09 12:13:40;;;;;;;;;;;;;;;;;;5482548;26;19963;-71
2024/04/09 12:16:09;;;;;;;;;;;;;;;;;;5482134;26;19932;-71
2024/04/09 12:18:36;;;;;;;;;;;;;;;;;;5481748;26;19928;-71
2024/04/09 12:21:04;;;;;;;;;;;;;;;;;;5482099;26;20381;-71
2024/04/09 12:23:30;;;;;;;;;;;;;;;;;;5482639;26;19927;-72
2024/04/09 12:25:59;;;;;;;;;;;;;;;;;;5483165;26;20033;-71
2024/04/09 12:28:25;;;;;;;;;;;;;;;;;;5481372;26;20125;-70
2024/04/09 12:30:54;;;;;;;;;;;;;;;;;;5483727;26;20029;-70
2024/04/09 12:33:20;;;;;;;;;;;;;;;;;;5483665;26;19928;-71
2024/04/09 12:35:48;;;;;;;;;;;;;;;;;;5484035;26;19958;-71
2024/04/09 12:38:14;;;;;;;;;;;;;;;;;;5482351;26;19928;-71
2024/04/09 12:40:43;;;;;;;;;;;;;;;;;;5482224;26;20423;-72
2024/04/09 12:43:09;;;;;;;;;;;;;;;;;;5482216;26;19928;-71
2024/04/09 12:45:38;;;;;;;;;;;;;;;;;;5473980;26;20330;-72
2024/04/09 12:48:04;;;;;;;;;;;;;;;;;;5445817;26;19997;-72
2024/04/09 12:50:33;;;;;;;;;;;;;;;;;;5446034;26;19964;-72
2024/04/09 12:52:59;;;;;;;;;;;;;;;;;;5445989;26;19929;-72
2024/04/09 12:55:28;;;;;;;;;;;;;;;;;;5445969;26;19982;-72
2024/04/09 12:57:54;;;;;;;;;;;;;;;;;;5445375;26;19935;-72
2024/04/09 13:00:25;;;;;;;;;;;;;;;;;;5445365;26;19957;-71
2024/04/09 13:02:51;;;;;;;;;;;;;;;;;;5446550;26;19929;-72
2024/04/09 13:05:20;;;;;;;;;;;;;;;;;;5445082;26;19929;-70
2024/04/09 13:07:47;;;;;;;;;;;;;;;;;;5445331;26;19929;-70
2024/04/09 13:10:17;;;;;;;;;;;;;;;;;;5445257;26;20048;-70
2024/04/09 13:12:43;;;;;;;;;;;;;;;;;;5445533;26;20369;-77
2024/04/09 13:15:12;;;;;;;;;;;;;;;;;;5446283;26;19929;-76
2024/04/09 13:17:38;;;;;;;;;;;;;;;;;;5445468;26;20374;-76
2024/04/09 13:20:07;;;;;;;;;;;;;;;;;;5454893;26;19928;-75
2024/04/09 13:22:33;;;;;;;;;;;;;;;;;;5447846;26;19928;-74
2024/04/09 13:25:03;;;;;;;;;;;;;;;;;;5481197;26;19928;-75
2024/04/09 13:27:29;;;;;;;;;;;;;;;;;;5481019;26;20462;-75
2024/04/09 13:29:59;;;;;;;;;;;;;;;;;;5481578;26;19928;-70
2024/04/09 13:32:25;;;;;;;;;;;;;;;;;;5481239;26;19996;-70
2024/04/09 13:34:53;;;;;;;;;;;;;;;;;;5480734;26;19936;-70
2024/04/09 13:37:20;;;;;;;;;;;;;;;;;;5479883;26;19935;-71
2024/04/09 13:39:49;;;;;;;;;;;;;;;;;;5480984;26;19928;-70
2024/04/09 13:42:15;;;;;;;;;;;;;;;;;;5481564;26;19935;-71
2024/04/09 13:44:44;;;;;;;;;;;;;;;;;;5485218;26;19934;-70
2024/04/09 13:47:10;;;;;;;;;;;;;;;;;;5484691;26;19928;-70
2024/04/09 13:49:38;;;;;;;;;;;;;;;;;;5485002;26;19943;-70
2024/04/09 13:52:04;;;;;;;;;;;;;;;;;;5484823;26;19939;-71
2024/04/09 13:54:33;;;;;;;;;;;;;;;;;;5482968;26;19951;-70
2024/04/09 13:56:59;;;;;;;;;;;;;;;;;;5483957;26;19928;-71
2024/04/09 13:59:28;;;;;;;;;;;;;;;;;;5484860;26;19935;-71
2024/04/09 14:01:54;;;;;;;;;;;;;;;;;;5455677;26;19935;-75
2024/04/09 14:04:23;;;;;;;;;;;;;;;;;;5448380;26;20376;-74
2024/04/09 14:06:49;;;;;;;;;;;;;;;;;;5448302;26;20280;-75
2024/04/09 14:09:18;;;;;;;;;;;;;;;;;;5448092;26;19929;-75
2024/04/09 14:11:44;;;;;;;;;;;;;;;;;;5449698;26;20794;-75
2024/04/09 14:14:12;;;;;;;;;;;;;;;;;;5448182;26;19932;-75
2024/04/09 14:16:38;;;;;;;;;;;;;;;;;;5448186;26;19933;-75
2024/04/09 14:19:12;;;;;;;;;;;;;;;;;;5478113;26;19927;-75
2024/04/09 14:21:40;;;;;;;;;;;;;;;;;;5484680;26;19932;-75
2024/04/09 14:24:09;;;;;;;;;;;;;;;;;;5484231;26;19927;-75
2024/04/09 14:26:36;;;;;;;;;;;;;;;;;;5483841;26;19935;-75
2024/04/09 14:29:05;;;;;;;;;;;;;;;;;;5482530;26;20024;-74
2024/04/09 14:31:31;;;;;;;;;;;;;;;;;;5484212;26;20006;-75
2024/04/09 14:34:00;;;;;;;;;;;;;;;;;;5484850;26;19934;-78
2024/04/09 14:36:26;;;;;;;;;;;;;;;;;;5484258;26;19935;-70
2024/04/09 14:38:55;;;;;;;;;;;;;;;;;;5483762;26;19939;-70
2024/04/09 14:41:21;;;;;;;;;;;;;;;;;;5484492;26;19928;-69
2024/04/09 14:43:50;;;;;;;;;;;;;;;;;;5484861;26;19928;-71
2024/04/09 14:46:16;;;;;;;;;;;;;;;;;;5482413;26;19935;-71
2024/04/09 14:48:44;;;;;;;;;;;;;;;;;;5482689;26;19935;-70
2024/04/09 14:51:11;;;;;;;;;;;;;;;;;;5482063;26;19939;-70
2024/04/09 14:53:40;;;;;;;;;;;;;;;;;;5481126;26;19934;-70
2024/04/09 14:56:06;;;;;;;;;;;;;;;;;;5482407;26;20352;-70
2024/04/09 14:58:37;;;;;;;;;;;;;;;;;;5463470;26;19937;-71
2024/04/09 15:01:03;;;;;;;;;;;;;;;;;;5446158;26;19977;-70
2024/04/09 15:03:32;;;;;;;;;;;;;;;;;;5445176;26;19996;-70
2024/04/09 15:05:58;;;;;;;;;;;;;;;;;;5445209;26;19928;-71
2024/04/09 15:08:27;;;;;;;;;;;;;;;;;;5445070;26;19941;-71
2024/04/09 15:10:53;;;;;;;;;;;;;;;;;;5444783;26;19960;-70
2024/04/09 15:13:22;;;;;;;;;;;;;;;;;;5445133;26;20037;-70
2024/04/09 15:15:48;;;;;;;;;;;;;;;;;;5446534;26;19929;-70
2024/04/09 15:18:16;;;;;;;;;;;;;;;;;;5480830;26;19940;-70
2024/04/09 15:20:42;;;;;;;;;;;;;;;;;;5481298;26;19928;-72
2024/04/09 15:23:11;;;;;;;;;;;;;;;;;;5481074;26;20366;-71
2024/04/09 15:25:37;;;;;;;;;;;;;;;;;;5481315;26;19935;-70
2024/04/09 15:28:06;;;;;;;;;;;;;;;;;;5480741;26;19936;-70
2024/04/09 15:30:32;;;;;;;;;;;;;;;;;;5481108;26;20350;-71
2024/04/09 15:33:01;;;;;;;;;;;;;;;;;;5459957;26;19928;-71
2024/04/09 15:35:27;;;;;;;;;;;;;;;;;;5445646;26;19933;-71
2024/04/09 15:37:57;;;;;;;;;;;;;;;;;;5444380;26;19928;-71
2024/04/09 15:40:23;;;;;;;;;;;;;;;;;;5444635;26;20440;-72
2024/04/09 15:42:52;;;;;;;;;;;;;;;;;;5444040;26;20372;-72
2024/04/09 15:45:18;;;;;;;;;;;;;;;;;;5444625;26;20019;-72
2024/04/09 15:47:47;;;;;;;;;;;;;;;;;;5444090;26;20031;-72
2024/04/09 15:50:13;;;;;;;;;;;;;;;;;;5444530;26;20276;-71
2024/04/09 15:52:43;;;;;;;;;;;;;;;;;;5445622;26;19935;-71
2024/04/09 15:55:09;;;;;;;;;;;;;;;;;;5444766;26;19935;-72
2024/04/09 15:57:38;;;;;;;;;;;;;;;;;;5479913;26;19928;-72
2024/04/09 16:00:11;;;;;;;;;;;;;;;;;;5480245;26;19928;-72
2024/04/09 16:02:40;;;;;;;;;;;;;;;;;;5480072;26;20394;-71
2024/04/09 16:05:07;;;;;;;;;;;;;;;;;;5478759;26;19952;-72
2024/04/09 16:07:36;;;;;;;;;;;;;;;;;;5480650;26;19928;-71
2024/04/09 16:10:02;;;;;;;;;;;;;;;;;;5478994;26;19951;-71
2024/04/09 16:12:31;;;;;;;;;;;;;;;;;;5479818;26;19928;-71
2024/04/09 16:14:57;;;;;;;;;;;;;;;;;;5480063;26;19958;-71
2024/04/09 16:17:26;;;;;;;;;;;;;;;;;;5480762;26;20450;-72
2024/04/09 16:19:52;;;;;;;;;;;;;;;;;;5480372;26;19935;-71
2024/04/09 16:22:20;;;;;;;;;;;;;;;;;;5480507;26;20442;-72
2024/04/09 16:24:46;;;;;;;;;;;;;;;;;;5480459;26;20386;-72
2024/04/09 16:27:15;;;;;;;;;;;;;;;;;;5462444;26;20040;-71
2024/04/09 16:29:41;;;;;;;;;;;;;;;;;;5443496;26;20446;-71
2024/04/09 16:32:10;;;;;;;;;;;;;;;;;;5443388;26;19996;-72
2024/04/09 16:34:36;;;;;;;;;;;;;;;;;;5443942;26;19928;-72
2024/04/09 16:37:05;;;;;;;;;;;;;;;;;;5443122;26;19940;-72
2024/04/09 16:39:31;;;;;;;;;;;;;;;;;;5443721;26;19928;-71
2024/04/09 16:42:00;;;;;;;;;;;;;;;;;;5444017;26;19940;-71
2024/04/09 16:44:26;;;;;;;;;;;;;;;;;;5444773;26;20259;-72
2024/04/09 16:46:54;;;;;;;;;;;;;;;;;;5443394;26;20035;-71
2024/04/09 16:49:20;;;;;;;;;;;;;;;;;;5443311;26;20421;-71